Time;durP1;ratioP1;P1;durP2;ratioP2;P2;SDS_P1;SDS_P2;PMS_P1;PMS_P2;Temp;Humidity;BMP_temperature;BMP_pressure;BME280_temperature;BME280_humidity;BME280_pressure;Samples;Min_cycle;Max_cycle;Signal;HPM_P1;HPM_P2
2022/07/01 00:00:09;;;;;;;30.03;22.40;;;;;;;-145.18;100.00;46623.28;4895248;29;20053;-70
2022/07/01 00:02:34;;;;;;;31.83;23.07;;;;;;;-145.18;100.00;46627.19;4894685;29;20037;-70
2022/07/01 00:05:00;;;;;;;36.13;24.43;;;;;;;-145.18;100.00;46627.19;4895354;29;20573;-70
2022/07/01 00:07:25;;;;;;;36.90;24.43;;;;;;;-145.18;100.00;46625.22;4894633;29;20409;-70
2022/07/01 00:09:51;;;;;;;31.97;24.63;;;;;;;-145.18;100.00;46623.28;4894820;29;20075;-70
2022/07/01 00:12:16;;;;;;;37.00;22.77;;;;;;;-145.18;100.00;46625.22;4898353;29;20474;-70
2022/07/01 00:14:42;;;;;;;32.60;22.63;;;;;;;-145.18;100.00;46625.22;4898780;29;20043;-70
2022/07/01 00:17:07;;;;;;;30.97;22.70;;;;;;;-145.18;100.00;46623.28;4898716;29;20040;-70
2022/07/01 00:19:33;;;;;;;33.77;22.10;;;;;;;-145.18;100.00;46621.31;4898876;29;20044;-70
2022/07/01 00:21:58;;;;;;;36.93;22.80;;;;;;;-145.18;100.00;46627.19;4898529;29;20037;-70
2022/07/01 00:24:24;;;;;;;33.67;21.93;;;;;;;-145.18;100.00;46627.19;4898478;29;20402;-70
2022/07/01 00:26:49;;;;;;;33.13;23.03;;;;;;;-145.18;100.00;46629.13;4898174;29;20382;-70
2022/07/01 00:29:15;;;;;;;39.03;23.00;;;;;;;-145.18;100.00;46625.22;4898411;29;20127;-70
2022/07/01 00:31:40;;;;;;;33.80;22.17;;;;;;;-145.18;100.00;46625.22;4898081;29;20041;-70
2022/07/01 00:34:06;;;;;;;28.60;21.53;;;;;;;-145.18;100.00;46625.22;4898613;29;20505;-70
2022/07/01 00:36:31;;;;;;;30.70;22.43;;;;;;;-145.18;100.00;46623.28;4898008;29;20045;-70
2022/07/01 00:39:00;;;;;;;31.30;21.77;;;;;;;-145.18;100.00;46625.22;4897892;29;20446;-70
2022/07/01 00:41:26;;;;;;;33.00;21.87;;;;;;;-145.18;100.00;46621.31;4898439;29;20096;-70
2022/07/01 00:43:51;;;;;;;33.30;22.33;;;;;;;-145.18;100.00;46625.22;4898235;29;20040;-70
2022/07/01 00:46:18;;;;;;;33.83;21.70;;;;;;;-145.18;100.00;46621.31;4898188;29;20028;-70
2022/07/01 00:48:43;;;;;;;31.27;22.80;;;;;;;-145.18;100.00;46619.38;4898037;29;20436;-70
2022/07/01 00:51:09;;;;;;;34.70;22.83;;;;;;;-145.18;100.00;46621.31;4898654;29;20032;-70
2022/07/01 00:53:35;;;;;;;33.93;21.70;;;;;;;-145.18;100.00;46623.28;4896870;29;20037;-70
2022/07/01 00:56:00;;;;;;;31.77;23.17;;;;;;;-145.18;100.00;46627.19;4898669;29;20033;-70
2022/07/01 00:58:28;;;;;;;30.07;21.10;;;;;;;-145.18;100.00;46621.31;4898001;29;20028;-70
2022/07/01 01:00:54;;;;;;;42.73;23.17;;;;;;;-145.18;100.00;46621.31;4898209;29;20080;-70
2022/07/01 01:03:19;;;;;;;30.73;21.93;;;;;;;-145.18;100.00;46625.22;4896920;29;20043;-69
2022/07/01 01:05:45;;;;;;;31.33;22.27;;;;;;;-145.18;100.00;46625.22;4898079;29;20033;-69
2022/07/01 01:08:11;;;;;;;39.07;21.97;;;;;;;-145.18;100.00;46625.22;4897955;29;20047;-70
2022/07/01 01:10:37;;;;;;;34.93;21.93;;;;;;;-145.18;100.00;46629.13;4897540;29;20494;-69
2022/07/01 01:13:03;;;;;;;34.23;21.30;;;;;;;-145.18;100.00;46625.22;4897899;29;20088;-69
2022/07/01 01:15:32;;;;;;;33.70;21.63;;;;;;;-145.18;100.00;46625.22;4896913;29;20048;-69
2022/07/01 01:17:58;;;;;;;33.17;20.80;;;;;;;-145.18;100.00;46623.28;4897371;29;20552;-70
2022/07/01 01:20:23;;;;;;;35.23;21.37;;;;;;;-145.18;100.00;46625.22;4897962;29;20020;-70
2022/07/01 01:22:49;;;;;;;33.23;20.47;;;;;;;-145.18;100.00;46621.31;4896750;29;20550;-70
2022/07/01 01:25:16;;;;;;;31.63;21.50;;;;;;;-145.18;100.00;46625.22;4897239;29;20028;-70
2022/07/01 01:27:41;;;;;;;32.37;19.60;;;;;;;-145.18;100.00;46621.31;4897248;29;20029;-70
2022/07/01 01:30:11;;;;;;;31.47;20.63;;;;;;;-145.18;100.00;46623.28;4880861;29;20397;-70
2022/07/01 01:32:37;;;;;;;29.23;20.30;;;;;;;-145.18;100.00;46621.31;4897150;29;20089;-70
2022/07/01 01:35:03;;;;;;;32.07;20.40;;;;;;;-145.18;100.00;46627.19;4897718;29;20232;-70
2022/07/01 01:37:28;;;;;;;34.53;20.27;;;;;;;-145.18;100.00;46629.13;4897094;29;20029;-70
2022/07/01 01:39:54;;;;;;;38.20;21.27;;;;;;;-145.18;100.00;46627.19;4896722;29;20037;-70
2022/07/01 01:42:20;;;;;;;33.53;19.70;;;;;;;-145.18;100.00;46623.28;4897214;29;20088;-70
2022/07/01 01:44:45;;;;;;;32.27;20.63;;;;;;;-145.18;100.00;46623.28;4897435;29;20113;-69
2022/07/01 01:47:11;;;;;;;34.60;20.33;;;;;;;-145.18;100.00;46625.22;4897077;29;20033;-70
2022/07/01 01:49:36;;;;;;;35.33;21.23;;;;;;;-145.18;100.00;46623.28;4897052;29;20037;-69
2022/07/01 01:52:02;;;;;;;32.70;21.50;;;;;;;-145.18;100.00;46627.19;4897361;29;20115;-70
2022/07/01 01:54:28;;;;;;;32.30;20.73;;;;;;;-145.18;100.00;46629.13;4896990;29;20127;-69
2022/07/01 01:56:53;;;;;;;33.97;21.27;;;;;;;-145.18;100.00;46619.38;4896351;29;20099;-70
2022/07/01 01:59:19;;;;;;;30.93;20.10;;;;;;;-145.18;100.00;46625.22;4897266;29;20028;-69
2022/07/01 02:01:44;;;;;;;37.33;21.13;;;;;;;-145.18;100.00;46625.22;5057057;23;21368;-70
2022/07/01 02:04:10;;;;;;;33.37;20.23;;;;;;;-145.18;100.00;46621.31;4915890;29;20223;-69
2022/07/01 02:06:36;;;;;;;33.13;20.80;;;;;;;-145.18;100.00;46621.31;4914717;29;20057;-69
2022/07/01 02:09:02;;;;;;;32.20;19.90;;;;;;;-145.18;100.00;46621.31;4914849;29;20476;-69
2022/07/01 02:11:28;;;;;;;36.63;21.37;;;;;;;-145.18;100.00;46625.22;4915984;29;20030;-69
2022/07/01 02:13:53;;;;;;;37.87;20.87;;;;;;;-145.18;100.00;46627.19;4915597;29;20032;-69
2022/07/01 02:16:18;;;;;;;43.17;22.20;;;;;;;-145.18;100.00;46629.13;4915733;29;20111;-69
2022/07/01 02:18:44;;;;;;;44.47;24.70;;;;;;;-145.18;100.00;46625.22;4915262;29;20115;-69
2022/07/01 02:21:09;;;;;;;48.77;25.17;;;;;;;-145.18;100.00;46623.28;4915897;29;20064;-69
2022/07/01 02:23:35;;;;;;;38.50;23.40;;;;;;;-145.18;100.00;46625.22;4915356;29;20118;-69
2022/07/01 02:26:00;;;;;;;42.70;24.33;;;;;;;-145.18;100.00;46623.28;4898485;29;20623;-69
2022/07/01 02:28:26;;;;;;;45.63;25.40;;;;;;;-145.18;100.00;46625.22;4915257;29;20028;-69
2022/07/01 02:30:51;;;;;;;47.73;26.30;;;;;;;-145.18;100.00;46582.25;4915371;29;20032;-69
2022/07/01 02:33:17;;;;;;;46.63;27.70;;;;;;;-145.18;100.00;46623.28;4915019;29;20460;-69
2022/07/01 02:35:42;;;;;;;45.33;26.80;;;;;;;-145.18;100.00;46623.28;4914969;29;20115;-69
2022/07/01 02:38:08;;;;;;;44.83;27.23;;;;;;;-145.18;100.00;46621.31;4914983;29;20456;-69
2022/07/01 02:40:37;;;;;;;46.83;25.83;;;;;;;-145.18;100.00;46582.25;4915279;29;20032;-69
2022/07/01 02:43:02;;;;;;;47.40;26.50;;;;;;;-145.18;100.00;46625.22;4914769;29;20028;-69
2022/07/01 02:45:28;;;;;;;44.10;27.67;;;;;;;-145.18;100.00;46621.31;4915432;29;20083;-69
2022/07/01 02:47:53;;;;;;;46.37;29.47;;;;;;;-145.18;100.00;46578.34;4914772;29;20064;-69
2022/07/01 02:50:19;;;;;;;59.77;31.03;;;;;;;-145.18;100.00;46584.22;4915186;29;20040;-69
2022/07/01 02:52:45;;;;;;;54.53;31.53;;;;;;;-145.18;100.00;46623.28;4914605;29;20071;-69
2022/07/01 02:55:12;;;;;;;56.00;31.63;;;;;;;-145.18;100.00;46580.31;4915182;29;20401;-69
2022/07/01 02:57:38;;;;;;;54.63;31.83;;;;;;;-145.18;100.00;46623.28;4914902;29;20393;-69
2022/07/01 03:00:08;;;;;;;55.03;30.80;;;;;;;-145.18;100.00;46582.25;4914928;29;20036;-69
2022/07/01 03:02:33;;;;;;;50.60;31.33;;;;;;;-145.18;100.00;46582.25;4902950;29;20105;-69
2022/07/01 03:04:59;;;;;;;53.47;31.10;;;;;;;-145.18;100.00;46582.25;4895914;29;20024;-69
2022/07/01 03:07:24;;;;;;;61.17;30.23;;;;;;;-145.18;100.00;46623.28;4895872;29;20094;-69
2022/07/01 03:09:50;;;;;;;60.33;32.53;;;;;;;-145.18;100.00;46623.28;4895934;29;20208;-69
2022/07/01 03:12:25;;;;;;;56.27;30.60;;;;;;;-145.18;100.00;46582.25;4895622;29;20036;-69
2022/07/01 03:14:56;;;;;;;55.43;31.57;;;;;;;-145.18;100.00;46580.31;4895943;29;20259;-69
2022/07/01 03:17:23;;;;;;;51.90;29.90;;;;;;;-145.18;100.00;46623.28;4895483;29;20206;-69
2022/07/01 03:19:51;;;;;;;57.50;30.90;;;;;;;-145.18;100.00;46621.31;4895758;29;20402;-69
2022/07/01 03:22:16;;;;;;;49.83;30.00;;;;;;;-145.18;100.00;46580.31;4895522;29;20037;-69
2022/07/01 03:24:42;;;;;;;55.93;30.07;;;;;;;-145.18;100.00;46582.25;4895690;29;20107;-69
2022/07/01 03:27:07;;;;;;;50.90;29.43;;;;;;;-145.18;100.00;46582.25;4895121;29;20660;-69
2022/07/01 03:29:33;;;;;;;51.93;28.77;;;;;;;-145.18;100.00;46621.31;4895798;29;20565;-69
2022/07/01 03:31:58;;;;;;;56.53;31.63;;;;;;;-145.18;100.00;46580.31;4895485;29;20036;-69
2022/07/01 03:34:23;;;;;;;55.90;30.80;;;;;;;-145.18;100.00;46578.34;4895193;29;20028;-69
2022/07/01 03:36:49;;;;;;;56.67;30.43;;;;;;;-145.18;100.00;46582.25;4895433;29;20047;-69
2022/07/01 03:39:14;;;;;;;54.03;31.37;;;;;;;-145.18;100.00;46582.25;4895179;29;20028;-69
2022/07/01 03:41:39;;;;;;;53.13;29.40;;;;;;;-145.18;100.00;46582.25;4895744;29;20410;-69
2022/07/01 03:44:08;;;;;;;56.37;31.70;;;;;;;-145.18;100.00;46580.31;4894882;29;20035;-70
2022/07/01 03:46:35;;;;;;;52.17;31.50;;;;;;;-145.18;100.00;46580.31;4894915;29;20043;-69
2022/07/01 03:49:00;;;;;;;59.40;31.43;;;;;;;-145.18;100.00;46625.22;4894655;29;20087;-69
2022/07/01 03:51:26;;;;;;;56.47;32.13;;;;;;;-145.18;100.00;46582.25;4895216;29;20028;-69
2022/07/01 03:56:35;;;;;;;53.47;29.83;;;;;;;-145.18;100.00;46623.28;4895753;29;20068;-69
2022/07/01 03:59:00;;;;;;;58.27;32.17;;;;;;;-145.18;100.00;46580.31;4894927;29;20036;-69
2022/07/01 04:01:26;;;;;;;50.20;29.83;;;;;;;-145.18;100.00;46578.34;4895410;29;20408;-69
2022/07/01 04:03:51;;;;;;;52.80;30.13;;;;;;;-145.18;100.00;46582.25;4894913;29;20044;-69
2022/07/01 04:06:17;;;;;;;53.90;31.27;;;;;;;-145.18;100.00;46582.25;4895423;29;20040;-69
2022/07/01 04:08:42;;;;;;;54.77;29.17;;;;;;;-145.18;100.00;46582.25;4894767;29;20051;-69
2022/07/01 04:11:08;;;;;;;51.97;28.33;;;;;;;-145.18;100.00;46582.25;4895159;29;20617;-69
2022/07/01 04:13:37;;;;;;;58.17;29.10;;;;;;;-145.18;100.00;46580.31;4895115;29;20039;-69
2022/07/01 04:16:03;;;;;;;50.63;28.70;;;;;;;-145.18;100.00;46578.34;4895007;29;20036;-69
2022/07/01 04:18:30;;;;;;;47.87;28.07;;;;;;;-145.18;100.00;46586.16;4878273;29;20048;-69
2022/07/01 04:23:40;;;;;;;56.10;28.73;;;;;;;-145.18;100.00;46584.22;4894973;29;20557;-69
2022/07/01 04:26:06;;;;;;;49.40;27.40;;;;;;;-145.18;100.00;46582.25;4894964;29;20032;-69
2022/07/01 04:28:31;;;;;;;52.47;28.03;;;;;;;-145.18;100.00;46584.22;4894765;29;20028;-69
2022/07/01 04:30:57;;;;;;;50.37;28.93;;;;;;;-145.18;100.00;46580.31;4895136;29;20064;-69
2022/07/01 04:33:22;;;;;;;53.67;28.47;;;;;;;-145.18;100.00;46580.31;4894554;29;20037;-69
2022/07/01 04:35:47;;;;;;;47.40;27.17;;;;;;;-145.18;100.00;46582.25;4894953;29;20525;-69
2022/07/01 04:38:13;;;;;;;45.73;26.50;;;;;;;-145.18;100.00;46580.31;4894710;29;20020;-69
2022/07/01 04:40:38;;;;;;;48.00;25.70;;;;;;;-145.18;100.00;46582.25;4894997;29;20130;-69
2022/07/01 04:43:03;;;;;;;52.03;25.87;;;;;;;-145.18;100.00;46584.22;4893184;29;20043;-69
2022/07/01 04:45:29;;;;;;;41.57;24.50;;;;;;;-145.18;100.00;46578.34;4900862;29;20055;-69
2022/07/01 04:47:54;;;;;;;43.23;24.87;;;;;;;-145.18;100.00;46578.34;4903421;29;20060;-70
2022/07/01 04:50:19;;;;;;;38.63;23.23;;;;;;;-145.18;100.00;46576.41;4894975;29;20072;-69
2022/07/01 04:52:45;;;;;;;35.37;21.57;;;;;;;-145.18;100.00;46578.34;4894528;29;20036;-69
2022/07/01 04:55:10;;;;;;;35.17;21.37;;;;;;;-145.18;100.00;46580.31;4894993;29;20043;-69
2022/07/01 04:57:36;;;;;;;36.40;19.80;;;;;;;-145.18;100.00;46582.25;4894192;29;20489;-69
2022/07/01 05:00:02;;;;;;;31.27;18.50;;;;;;;-145.18;100.00;46578.34;4897297;29;20412;-69
2022/07/01 05:02:28;;;;;;;27.00;16.23;;;;;;;-145.18;100.00;46574.44;4897761;29;20134;-70
2022/07/01 05:04:54;;;;;;;33.97;17.73;;;;;;;-145.18;100.00;46574.44;4897468;29;20119;-69
2022/07/01 05:07:28;;;;;;;28.50;14.77;;;;;;;-145.18;100.00;46576.41;4898126;29;20379;-70
2022/07/01 05:09:55;;;;;;;27.57;14.20;;;;;;;-145.18;100.00;46578.34;4897653;29;20417;-70
2022/07/01 05:12:21;;;;;;;27.13;13.73;;;;;;;-145.18;100.00;46582.25;4897975;29;20046;-70
2022/07/01 05:14:46;;;;;;;23.20;12.77;;;;;;;-145.18;100.00;46576.41;4897579;29;20087;-69
2022/07/01 05:17:11;;;;;;;21.23;13.37;;;;;;;-145.18;100.00;46580.31;4897645;29;20478;-70
2022/07/01 05:22:20;;;;;;;18.83;11.67;;;;;;;-145.18;100.00;46580.31;4895622;29;20047;-70
2022/07/01 05:24:46;;;;;;;24.90;12.60;;;;;;;-145.18;100.00;46578.34;4896291;29;20473;-70
2022/07/01 05:27:11;;;;;;;22.90;12.23;;;;;;;-145.18;100.00;46580.31;4880725;29;20073;-70
2022/07/01 05:29:37;;;;;;;23.33;11.77;;;;;;;-145.18;100.00;46582.25;4896677;29;20051;-70
2022/07/01 05:32:02;;;;;;;17.10;11.03;;;;;;;-145.18;100.00;46580.31;4897544;29;20040;-70
2022/07/01 05:34:28;;;;;;;26.50;11.53;;;;;;;-145.18;100.00;46578.34;4897470;29;20028;-70
2022/07/01 05:36:53;;;;;;;17.37;10.80;;;;;;;-145.18;100.00;46586.16;4897362;29;20047;-70
2022/07/01 05:39:19;;;;;;;23.00;11.73;;;;;;;-145.18;100.00;46584.22;4897490;29;20024;-70
2022/07/01 05:41:45;;;;;;;19.70;10.13;;;;;;;-145.18;100.00;46590.06;4897682;29;20032;-70
2022/07/01 05:44:10;;;;;;;19.93;10.50;;;;;;;-145.18;100.00;46588.13;4897155;29;20040;-70
2022/07/01 05:46:36;;;;;;;19.73;10.87;;;;;;;-145.18;100.00;46588.13;4897551;29;20497;-70
2022/07/01 05:49:02;;;;;;;18.53;10.47;;;;;;;-145.18;100.00;46586.16;4896691;29;20080;-70
2022/07/01 05:51:27;;;;;;;16.03;9.87;;;;;;;-145.18;100.00;46592.03;4894439;29;20036;-70
2022/07/01 05:53:53;;;;;;;16.40;10.03;;;;;;;-145.18;100.00;46593.97;4896753;29;20040;-70
2022/07/01 05:56:18;;;;;;;19.53;9.70;;;;;;;-145.18;100.00;46593.97;4896092;29;20134;-70
2022/07/01 05:58:44;;;;;;;19.57;10.10;;;;;;;-145.18;100.00;46597.88;4896158;29;20470;-70
2022/07/01 06:01:09;;;;;;;15.80;9.67;;;;;;;-145.18;100.00;46592.03;4896241;29;20460;-70
2022/07/01 06:03:35;;;;;;;17.57;9.57;;;;;;;-145.18;100.00;46593.97;4894211;29;20068;-70
2022/07/01 06:06:00;;;;;;;22.87;10.43;;;;;;;-145.18;100.00;46593.97;4896254;29;20041;-70
2022/07/01 06:08:25;;;;;;;21.23;10.17;;;;;;;-145.18;100.00;46595.94;4895915;29;20053;-70
2022/07/01 06:10:51;;;;;;;19.17;9.33;;;;;;;-145.18;100.00;46595.94;4896142;29;20041;-70
2022/07/01 06:13:16;;;;;;;18.67;9.43;;;;;;;-145.18;100.00;46597.88;4895088;29;20446;-70
2022/07/01 06:15:42;;;;;;;20.40;9.63;;;;;;;-145.18;100.00;46593.97;4879555;29;20123;-70
2022/07/01 06:18:07;;;;;;;14.93;10.00;;;;;;;-145.18;100.00;46595.94;4895600;29;20037;-70
2022/07/01 06:20:32;;;;;;;16.87;9.20;;;;;;;-145.18;100.00;46603.75;4894453;29;20036;-70
2022/07/01 06:22:58;;;;;;;18.33;8.80;;;;;;;-145.18;100.00;46599.84;4895737;29;20418;-71
2022/07/01 06:25:23;;;;;;;15.83;8.97;;;;;;;-145.18;100.00;46599.84;4896417;29;20040;-70
2022/07/01 06:27:49;;;;;;;18.27;8.87;;;;;;;-145.18;100.00;46599.84;4895479;29;20048;-70
2022/07/01 06:30:14;;;;;;;13.33;7.83;;;;;;;-145.18;100.00;46605.69;4896060;29;20033;-71
2022/07/01 06:32:40;;;;;;;17.77;8.60;;;;;;;-145.18;100.00;46603.75;4894869;29;20032;-71
2022/07/01 06:35:07;;;;;;;20.40;9.00;;;;;;;-145.18;100.00;46599.84;4895609;29;20059;-71
2022/07/01 06:37:33;;;;;;;20.03;9.83;;;;;;;-145.18;100.00;46603.75;4895566;29;20111;-71
2022/07/01 06:40:00;;;;;;;17.20;9.77;;;;;;;-145.18;100.00;46597.88;4895064;29;20036;-71
2022/07/01 06:42:25;;;;;;;18.73;8.50;;;;;;;-145.18;100.00;46603.75;4895387;29;20036;-71
2022/07/01 06:44:51;;;;;;;21.43;8.37;;;;;;;-145.18;100.00;46607.66;4894955;29;20051;-71
2022/07/01 06:47:16;;;;;;;23.33;7.37;;;;;;;-145.18;100.00;46611.56;4875461;29;20460;-70
2022/07/01 06:49:42;;;;;;;20.23;9.00;;;;;;;-145.18;100.00;46613.50;4876755;29;20096;-71
2022/07/01 06:52:07;;;;;;;14.93;6.47;;;;;;;-145.18;100.00;46613.50;4876958;29;20091;-71
2022/07/01 06:54:35;;;;;;;14.30;7.03;;;;;;;-145.18;100.00;46613.50;4876822;29;20550;-70
2022/07/01 06:57:01;;;;;;;14.67;7.03;;;;;;;-145.18;100.00;46611.56;4876906;29;20064;-71
2022/07/01 06:59:26;;;;;;;14.53;7.33;;;;;;;-145.18;100.00;46613.50;4876488;29;20433;-71
2022/07/01 07:01:53;;;;;;;16.63;7.33;;;;;;;-145.18;100.00;46613.50;4876301;29;20465;-71
2022/07/01 07:04:18;;;;;;;16.27;6.77;;;;;;;-145.18;100.00;46617.41;4876859;29;20085;-71
2022/07/01 07:06:43;;;;;;;13.53;6.47;;;;;;;-145.18;100.00;46619.38;4860274;29;20041;-71
2022/07/01 07:09:09;;;;;;;13.33;5.83;;;;;;;-145.18;100.00;46621.31;4876109;29;20124;-71
2022/07/01 07:11:34;;;;;;;16.30;6.33;;;;;;;-145.18;100.00;46621.31;4876976;29;20156;-71
2022/07/01 07:13:59;;;;;;;16.77;6.53;;;;;;;-145.18;100.00;46619.38;4876065;29;20602;-71
2022/07/01 07:16:26;;;;;;;15.67;6.00;;;;;;;-145.18;100.00;46623.28;4887290;29;20525;-71
2022/07/01 07:18:51;;;;;;;14.30;6.00;;;;;;;-145.18;100.00;46619.38;4878107;29;20493;-71
2022/07/01 07:21:17;;;;;;;13.63;5.30;;;;;;;-145.18;100.00;46623.28;4878187;29;20044;-71
2022/07/01 07:23:42;;;;;;;9.80;5.57;;;;;;;-145.18;100.00;46621.31;4895122;29;20028;-71
2022/07/01 07:26:08;;;;;;;17.20;5.47;;;;;;;-145.18;100.00;46627.19;4895142;29;20717;-71
2022/07/01 07:28:34;;;;;;;7.90;4.37;;;;;;;-145.18;100.00;46623.28;4894823;29;20036;-71
2022/07/01 07:30:59;;;;;;;14.10;3.73;;;;;;;-145.18;100.00;46629.13;4895419;29;20554;-71
2022/07/01 07:33:24;;;;;;;15.23;5.23;;;;;;;-145.18;100.00;46631.09;4894740;29;20064;-71
2022/07/01 07:35:50;;;;;;;12.47;5.43;;;;;;;-145.18;100.00;46629.13;4895032;29;20040;-71
2022/07/01 07:38:15;;;;;;;8.60;4.00;;;;;;;-145.18;100.00;46629.13;4877882;29;20055;-71
2022/07/01 07:40:41;;;;;;;13.03;4.43;;;;;;;-145.18;100.00;46629.13;4894992;29;20028;-71
2022/07/01 07:43:07;;;;;;;8.97;3.80;;;;;;;-145.18;100.00;46633.06;4894538;29;20041;-71
2022/07/01 07:45:33;;;;;;;15.27;3.57;;;;;;;-145.18;100.00;46635.00;4895046;29;20031;-71
2022/07/01 07:48:00;;;;;;;12.00;3.40;;;;;;;-145.18;100.00;46633.06;4893703;29;20071;-71
2022/07/01 07:50:26;;;;;;;8.87;3.50;;;;;;;-145.18;100.00;46636.94;4894697;29;20052;-71
2022/07/01 07:52:51;;;;;;;7.60;2.70;;;;;;;-145.18;100.00;46636.94;4894831;29;20040;-71
2022/07/01 07:55:17;;;;;;;12.33;3.53;;;;;;;-145.18;100.00;46640.88;4894445;29;20028;-71
2022/07/01 07:57:42;;;;;;;7.90;3.03;;;;;;;-145.18;100.00;46644.78;4894789;29;20036;-71
2022/07/01 08:00:10;;;;;;;8.10;2.40;;;;;;;-145.18;100.00;46646.72;4894279;29;20365;-71
2022/07/01 08:02:35;;;;;;;9.53;2.70;;;;;;;-145.18;100.00;46642.81;4894719;29;20056;-71
2022/07/01 08:05:01;;;;;;;12.13;2.57;;;;;;;-145.18;100.00;46648.69;4894311;29;20048;-71
2022/07/01 08:07:26;;;;;;;8.20;2.70;;;;;;;-145.18;100.00;46652.59;4894880;29;20037;-71
2022/07/01 08:09:52;;;;;;;8.83;2.33;;;;;;;-145.18;100.00;46656.50;4894038;29;20036;-71
2022/07/01 08:12:17;;;;;;;6.60;2.00;;;;;;;-145.18;100.00;46656.50;4894717;29;20039;-71
2022/07/01 08:14:43;;;;;;;5.03;1.97;;;;;;;-145.18;100.00;46658.44;4894233;29;20569;-71
2022/07/01 08:17:09;;;;;;;8.13;2.70;;;;;;;-145.18;100.00;46650.63;4894589;29;20131;-71
2022/07/01 08:19:35;;;;;;;9.37;2.27;;;;;;;-145.18;100.00;46652.59;4894203;29;20060;-71
2022/07/01 08:22:00;;;;;;;6.20;2.17;;;;;;;-145.18;100.00;46644.78;4894391;29;20056;-71
2022/07/01 08:24:25;;;;;;;11.97;2.53;;;;;;;-145.18;100.00;46635.00;4894384;29;20037;-72
2022/07/01 08:26:51;;;;;;;9.13;1.93;;;;;;;-145.18;100.00;46635.00;4894401;29;20414;-71
2022/07/01 08:29:16;;;;;;;8.93;1.87;;;;;;;-145.18;100.00;46648.69;4894162;29;20120;-71
2022/07/01 08:31:41;;;;;;;4.10;1.43;;;;;;;-145.18;100.00;46615.47;4894509;29;20064;-71
2022/07/01 08:34:07;;;;;;;5.73;1.97;;;;;;;-145.18;100.00;46535.38;4894484;29;20039;-71
2022/07/01 08:36:33;;;;;;;5.07;1.63;;;;;;;-145.18;100.00;46531.47;4897905;29;20450;-71
2022/07/01 08:38:59;;;;;;;6.87;2.00;;;;;;;-145.18;100.00;46529.53;4897767;29;20033;-71
2022/07/01 08:41:24;;;;;;;3.00;1.87;;;;;;;-145.18;100.00;46527.56;4897948;29;20021;-71
2022/07/01 08:43:49;;;;;;;7.33;1.90;;;;;;;-145.18;100.00;46539.28;4880725;29;20127;-71
2022/07/01 08:46:15;;;;;;;8.50;1.90;;;;;;;-145.18;100.00;46533.44;4888531;29;20487;-71
2022/07/01 08:48:44;;;;;;;6.83;2.30;;;;;;;-145.18;100.00;46525.63;4878593;29;20052;-71
2022/07/01 08:51:10;;;;;;;9.10;2.00;;;;;;;-145.18;100.00;46531.47;4890200;29;20033;-71
2022/07/01 08:53:36;;;;;;;4.70;1.80;;;;;;;-145.18;100.00;46527.56;4893588;29;20147;-71
2022/07/01 08:58:48;;;;;;;10.93;2.00;;;;;;;-145.18;100.00;46533.44;4895186;29;20048;-71
2022/07/01 09:01:22;;;;;;;11.10;2.37;;;;;;;-145.18;100.00;46531.47;4896803;29;20069;-71
2022/07/01 09:03:49;;;;;;;8.33;1.90;;;;;;;-145.18;100.00;46541.25;4878287;29;20490;-71
2022/07/01 09:06:20;;;;;;;5.87;1.70;;;;;;;-145.18;100.00;46541.25;4879213;29;20033;-71
2022/07/01 09:08:47;;;;;;;6.40;1.77;;;;;;;-145.18;100.00;46541.25;4878519;29;20040;-71
2022/07/01 09:11:19;;;;;;;6.93;1.80;;;;;;;-145.18;100.00;46537.34;4895909;29;20172;-70
2022/07/01 09:14:06;;;;;;;7.77;1.67;;;;;;;-145.18;100.00;46541.25;4897234;29;20037;-71
2022/07/01 09:16:42;;;;;;;7.10;1.80;;;;;;;-145.18;100.00;46541.25;4877097;29;20561;-71
2022/07/01 09:19:08;;;;;;;8.67;2.90;;;;;;;-145.18;100.00;46551.00;4882116;29;20051;-71
2022/07/01 09:21:34;;;;;;;5.30;1.60;;;;;;;-145.18;100.00;46564.69;4897321;29;20066;-71
2022/07/01 09:24:04;;;;;;;6.07;1.60;;;;;;;-145.18;100.00;46558.81;4895242;29;20068;-71
2022/07/01 09:26:30;;;;;;;6.00;1.50;;;;;;;-145.18;100.00;46576.41;4897274;29;20062;-71
2022/07/01 09:28:57;;;;;;;9.17;1.70;;;;;;;-145.18;100.00;46552.97;4896832;29;20064;-70
2022/07/01 09:31:33;;;;;;;5.90;1.87;;;;;;;-145.18;100.00;46552.97;4897387;29;20129;-71
2022/07/01 09:34:07;;;;;;;8.90;1.60;;;;;;;-145.18;100.00;46558.81;4896933;29;20040;-71
2022/07/01 09:36:37;;;;;;;9.97;1.87;;;;;;;-145.18;100.00;46547.09;4911675;29;20037;-71
2022/07/01 09:39:04;;;;;;;6.90;1.80;;;;;;;-145.18;100.00;46558.81;4915558;29;20040;-70
2022/07/01 09:41:36;;;;;;;6.03;1.80;;;;;;;-145.18;100.00;46564.69;4916117;29;20036;-70
2022/07/01 09:44:06;;;;;;;2.87;1.30;;;;;;;-145.18;100.00;46566.63;4914668;29;20136;-71
2022/07/01 09:46:32;;;;;;;5.47;1.30;;;;;;;-145.18;100.00;46584.22;4903864;29;20047;-71
2022/07/01 09:48:57;;;;;;;6.03;1.10;;;;;;;-145.18;100.00;46584.22;4896456;29;20468;-71
2022/07/01 09:51:23;;;;;;;7.20;1.60;;;;;;;-145.18;100.00;46611.56;4880172;29;20092;-71
2022/07/01 09:53:48;;;;;;;9.40;1.40;;;;;;;-145.18;100.00;46582.25;4896197;29;20466;-71
2022/07/01 09:56:13;;;;;;;4.97;1.30;;;;;;;-145.18;100.00;46646.72;4896662;29;20044;-70
2022/07/01 09:58:42;;;;;;;6.43;1.30;;;;;;;-145.18;100.00;46633.06;4895277;29;20073;-70
2022/07/01 10:01:09;;;;;;;7.20;1.60;;;;;;;-145.18;100.00;46613.50;4896601;29;20036;-70
2022/07/01 10:03:38;;;;;;;7.00;1.33;;;;;;;-145.18;100.00;46592.03;4895967;29;20143;-71
2022/07/01 10:06:37;;;;;;;8.20;1.50;;;;;;;-145.18;100.00;46592.03;4896657;29;20028;-71
2022/07/01 10:09:21;;;;;;;2.50;1.17;;;;;;;-145.18;100.00;46949.50;4895871;29;20040;-72
2022/07/01 10:11:58;;;;;;;4.03;1.20;;;;;;;-145.18;100.00;46826.44;4896805;29;20386;-71
2022/07/01 10:14:25;;;;;;;3.87;1.20;;;;;;;-145.18;100.00;46703.38;4896219;29;20084;-71
2022/07/01 10:16:50;;;;;;;5.77;1.53;;;;;;;-145.18;100.00;46593.97;4896203;29;20187;-71
2022/07/01 10:19:26;;;;;;;8.50;1.60;;;;;;;-145.18;100.00;46787.38;4879148;29;20116;-70
2022/07/01 10:21:57;;;;;;;6.83;1.20;;;;;;;-145.18;100.00;46689.69;4895884;29;20075;-71
2022/07/01 10:24:25;;;;;;;5.90;1.30;;;;;;;-145.18;100.00;47164.38;4896198;29;20037;-70
2022/07/01 10:26:51;;;;;;;9.13;1.23;;;;;;;-145.18;100.00;47191.75;4895919;29;20028;-70
2022/07/01 10:29:34;;;;;;;5.47;1.67;;;;;;;-145.18;100.00;47160.47;4875767;29;20402;-70
2022/07/01 10:32:01;;;;;;;7.13;1.27;;;;;;;-145.18;100.00;47131.19;4876391;29;20037;-70
2022/07/01 10:34:37;;;;;;;7.77;1.63;;;;;;;-145.18;100.00;46582.25;4877139;29;20029;-70
2022/07/01 10:37:11;;;;;;;7.80;1.40;;;;;;;-145.18;100.00;46590.06;4876973;29;20490;-70
2022/07/01 10:39:56;;;;;;;6.90;1.67;;;;;;;-145.18;100.00;46574.44;4860353;29;20037;-70
2022/07/01 10:42:26;;;;;;;2.53;1.10;;;;;;;-145.18;100.00;46744.38;4876914;29;20033;-70
2022/07/01 10:45:04;;;;;;;8.87;2.03;;;;;;;-145.18;100.00;47199.56;4876406;29;20124;-70
2022/07/01 10:47:30;;;;;;;6.13;1.50;;;;;;;-145.18;100.00;47260.13;4877348;29;20033;-70
2022/07/01 10:50:03;;;;;;;3.73;1.17;;;;;;;-145.18;100.00;47183.94;4876455;29;20047;-70
2022/07/01 10:52:29;;;;;;;4.30;1.10;;;;;;;-145.18;100.00;47113.59;4894286;29;20044;-70
2022/07/01 10:54:57;;;;;;;7.73;1.20;;;;;;;-145.18;100.00;47113.59;4894252;29;20141;-70
2022/07/01 10:57:32;;;;;;;7.30;1.17;;;;;;;-145.18;100.00;47111.66;4895212;29;20031;-70
2022/07/01 11:00:00;;;;;;;5.87;1.20;;;;;;;-145.18;100.00;47115.56;4894935;29;20512;-70
2022/07/01 11:02:33;;;;;;;3.90;1.30;;;;;;;-145.18;100.00;47123.38;4895409;29;20498;-70
2022/07/01 11:05:01;;;;;;;6.60;1.50;;;;;;;-145.18;100.00;47119.47;4894072;29;20519;-70
2022/07/01 11:07:29;;;;;;;6.67;1.20;;;;;;;-145.18;100.00;47178.06;4895624;29;20039;-70